sensor_id;sensor_type;location;lat;lon;timestamp;temperature;humidity
35445;DHT22;21562;49.476;6.086;2023-07-24T00:00:15;22.50;99.90
35445;DHT22;21562;49.476;6.086;2023-07-24T00:02:40;21.90;99.90
35445;DHT22;21562;49.476;6.086;2023-07-24T00:05:06;22.00;99.90
35445;DHT22;21562;49.476;6.086;2023-07-24T00:07:32;22.20;99.90
35445;DHT22;21562;49.476;6.086;2023-07-24T00:09:57;22.10;99.90
35445;DHT22;21562;49.476;6.086;2023-07-24T00:12:23;22.00;99.90
35445;DHT22;21562;49.476;6.086;2023-07-24T00:14:49;21.80;99.90
35445;DHT22;21562;49.476;6.086;2023-07-24T00:17:15;21.60;99.90
35445;DHT22;21562;49.476;6.086;2023-07-24T00:19:40;21.50;99.90
35445;DHT22;21562;49.476;6.086;2023-07-24T00:22:06;21.40;99.90
35445;DHT22;21562;49.476;6.086;2023-07-24T00:24:32;21.30;99.90
35445;DHT22;21562;49.476;6.086;2023-07-24T00:26:57;21.20;99.90
35445;DHT22;21562;49.476;6.086;2023-07-24T00:29:23;21.00;99.90
35445;DHT22;21562;49.476;6.086;2023-07-24T00:31:49;21.10;99.90
35445;DHT22;21562;49.476;6.086;2023-07-24T00:34:14;21.30;99.90
35445;DHT22;21562;49.476;6.086;2023-07-24T00:36:40;21.30;99.90
35445;DHT22;21562;49.476;6.086;2023-07-24T00:39:06;21.30;99.90
35445;DHT22;21562;49.476;6.086;2023-07-24T00:41:32;21.20;99.90
35445;DHT22;21562;49.476;6.086;2023-07-24T00:43:57;21.10;99.90
35445;DHT22;21562;49.476;6.086;2023-07-24T00:46:23;21.00;99.90
35445;DHT22;21562;49.476;6.086;2023-07-24T00:48:50;21.00;99.90
35445;DHT22;21562;49.476;6.086;2023-07-24T00:51:16;20.80;99.90
35445;DHT22;21562;49.476;6.086;2023-07-24T00:53:42;20.80;99.90
35445;DHT22;21562;49.476;6.086;2023-07-24T00:56:08;21.10;99.90
35445;DHT22;21562;49.476;6.086;2023-07-24T00:58:37;21.10;99.90
35445;DHT22;21562;49.476;6.086;2023-07-24T01:01:03;21.10;99.90
35445;DHT22;21562;49.476;6.086;2023-07-24T01:03:34;21.30;99.90
35445;DHT22;21562;49.476;6.086;2023-07-24T01:06:02;21.40;99.90
35445;DHT22;21562;49.476;6.086;2023-07-24T01:08:28;21.30;99.90
35445;DHT22;21562;49.476;6.086;2023-07-24T01:10:55;21.30;99.90
35445;DHT22;21562;49.476;6.086;2023-07-24T01:13:25;21.20;99.90
35445;DHT22;21562;49.476;6.086;2023-07-24T01:16:01;21.30;99.90
35445;DHT22;21562;49.476;6.086;2023-07-24T01:18:30;21.20;99.90
35445;DHT22;21562;49.476;6.086;2023-07-24T01:20:58;21.40;99.90
35445;DHT22;21562;49.476;6.086;2023-07-24T01:23:52;21.40;99.90
35445;DHT22;21562;49.476;6.086;2023-07-24T01:26:21;21.70;99.90
35445;DHT22;21562;49.476;6.086;2023-07-24T01:28:49;21.60;99.90
35445;DHT22;21562;49.476;6.086;2023-07-24T01:31:15;21.40;99.90
35445;DHT22;21562;49.476;6.086;2023-07-24T01:33:42;21.30;99.90
35445;DHT22;21562;49.476;6.086;2023-07-24T01:36:08;21.20;99.90
35445;DHT22;21562;49.476;6.086;2023-07-24T01:38:35;21.30;99.90
35445;DHT22;21562;49.476;6.086;2023-07-24T01:41:02;21.20;99.90
35445;DHT22;21562;49.476;6.086;2023-07-24T01:43:29;21.20;99.90
35445;DHT22;21562;49.476;6.086;2023-07-24T01:45:55;21.20;99.90
35445;DHT22;21562;49.476;6.086;2023-07-24T01:48:21;21.60;99.90
35445;DHT22;21562;49.476;6.086;2023-07-24T01:50:47;21.80;99.90
35445;DHT22;21562;49.476;6.086;2023-07-24T01:53:13;22.00;99.90
35445;DHT22;21562;49.476;6.086;2023-07-24T01:55:38;21.90;99.90
35445;DHT22;21562;49.476;6.086;2023-07-24T01:58:04;21.70;99.90
35445;DHT22;21562;49.476;6.086;2023-07-24T02:00:30;21.50;99.90
35445;DHT22;21562;49.476;6.086;2023-07-24T02:02:55;21.50;99.90
35445;DHT22;21562;49.476;6.086;2023-07-24T02:05:21;21.30;99.90
35445;DHT22;21562;49.476;6.086;2023-07-24T02:07:47;21.30;99.90
35445;DHT22;21562;49.476;6.086;2023-07-24T02:10:13;21.40;99.90
35445;DHT22;21562;49.476;6.086;2023-07-24T02:12:38;21.70;99.90
35445;DHT22;21562;49.476;6.086;2023-07-24T02:15:05;21.90;99.90
35445;DHT22;21562;49.476;6.086;2023-07-24T02:17:31;21.80;99.90
35445;DHT22;21562;49.476;6.086;2023-07-24T02:19:57;21.90;99.90
35445;DHT22;21562;49.476;6.086;2023-07-24T02:22:23;22.10;99.90
35445;DHT22;21562;49.476;6.086;2023-07-24T02:24:49;22.20;99.90
35445;DHT22;21562;49.476;6.086;2023-07-24T02:27:26;22.10;99.90
35445;DHT22;21562;49.476;6.086;2023-07-24T02:29:52;21.80;99.90
35445;DHT22;21562;49.476;6.086;2023-07-24T02:32:17;21.70;99.90
35445;DHT22;21562;49.476;6.086;2023-07-24T02:34:43;21.60;99.90
35445;DHT22;21562;49.476;6.086;2023-07-24T02:37:08;21.50;99.90
35445;DHT22;21562;49.476;6.086;2023-07-24T02:39:34;21.60;99.90
35445;DHT22;21562;49.476;6.086;2023-07-24T02:42:00;21.70;99.90
35445;DHT22;21562;49.476;6.086;2023-07-24T02:44:25;21.20;99.90
35445;DHT22;21562;49.476;6.086;2023-07-24T02:46:51;20.80;99.90
35445;DHT22;21562;49.476;6.086;2023-07-24T02:49:16;20.70;99.90
35445;DHT22;21562;49.476;6.086;2023-07-24T02:51:42;20.80;99.90
35445;DHT22;21562;49.476;6.086;2023-07-24T02:54:07;20.80;99.90
35445;DHT22;21562;49.476;6.086;2023-07-24T02:56:33;21.00;99.90
35445;DHT22;21562;49.476;6.086;2023-07-24T02:58:58;21.10;99.90
35445;DHT22;21562;49.476;6.086;2023-07-24T03:01:24;21.10;99.90
35445;DHT22;21562;49.476;6.086;2023-07-24T03:03:50;21.10;99.90
35445;DHT22;21562;49.476;6.086;2023-07-24T03:06:15;21.00;99.90
35445;DHT22;21562;49.476;6.086;2023-07-24T03:08:41;20.80;99.90
35445;DHT22;21562;49.476;6.086;2023-07-24T03:11:07;21.00;99.90
35445;DHT22;21562;49.476;6.086;2023-07-24T03:13:33;21.10;99.90
35445;DHT22;21562;49.476;6.086;2023-07-24T03:15:59;21.20;99.90
35445;DHT22;21562;49.476;6.086;2023-07-24T03:18:24;21.20;99.90
35445;DHT22;21562;49.476;6.086;2023-07-24T03:20:50;21.40;99.90
35445;DHT22;21562;49.476;6.086;2023-07-24T03:23:16;21.50;99.90
35445;DHT22;21562;49.476;6.086;2023-07-24T03:25:42;21.50;99.90
35445;DHT22;21562;49.476;6.086;2023-07-24T03:28:08;21.60;99.90
35445;DHT22;21562;49.476;6.086;2023-07-24T03:30:33;21.60;99.90
35445;DHT22;21562;49.476;6.086;2023-07-24T03:32:59;21.70;99.90
35445;DHT22;21562;49.476;6.086;2023-07-24T03:35:26;21.60;99.90
35445;DHT22;21562;49.476;6.086;2023-07-24T03:37:52;21.10;99.90
35445;DHT22;21562;49.476;6.086;2023-07-24T03:40:17;20.80;99.90
35445;DHT22;21562;49.476;6.086;2023-07-24T03:42:43;20.80;99.90
35445;DHT22;21562;49.476;6.086;2023-07-24T03:45:09;20.80;99.90
35445;DHT22;21562;49.476;6.086;2023-07-24T03:47:34;20.80;99.90
35445;DHT22;21562;49.476;6.086;2023-07-24T03:50:00;20.60;99.90
35445;DHT22;21562;49.476;6.086;2023-07-24T03:52:25;20.70;99.90
35445;DHT22;21562;49.476;6.086;2023-07-24T03:54:52;20.80;99.90
35445;DHT22;21562;49.476;6.086;2023-07-24T03:57:17;20.90;99.90
35445;DHT22;21562;49.476;6.086;2023-07-24T03:59:43;20.90;99.90
35445;DHT22;21562;49.476;6.086;2023-07-24T04:02:09;20.90;99.90
35445;DHT22;21562;49.476;6.086;2023-07-24T04:04:34;20.60;99.90
35445;DHT22;21562;49.476;6.086;2023-07-24T04:07:00;20.50;99.90
35445;DHT22;21562;49.476;6.086;2023-07-24T04:09:26;20.40;99.90
35445;DHT22;21562;49.476;6.086;2023-07-24T04:11:52;20.70;99.90
35445;DHT22;21562;49.476;6.086;2023-07-24T04:14:17;20.80;99.90
35445;DHT22;21562;49.476;6.086;2023-07-24T04:16:43;21.00;99.90
35445;DHT22;21562;49.476;6.086;2023-07-24T04:19:08;21.00;99.90
35445;DHT22;21562;49.476;6.086;2023-07-24T04:21:34;21.00;99.90
35445;DHT22;21562;49.476;6.086;2023-07-24T04:24:00;21.00;99.90
35445;DHT22;21562;49.476;6.086;2023-07-24T04:26:25;21.10;99.90
35445;DHT22;21562;49.476;6.086;2023-07-24T04:28:51;20.90;99.90
35445;DHT22;21562;49.476;6.086;2023-07-24T04:31:16;20.70;99.90
35445;DHT22;21562;49.476;6.086;2023-07-24T04:33:42;20.70;99.90
35445;DHT22;21562;49.476;6.086;2023-07-24T04:36:07;20.50;99.90
35445;DHT22;21562;49.476;6.086;2023-07-24T04:38:33;20.40;99.90
35445;DHT22;21562;49.476;6.086;2023-07-24T04:41:02;20.50;99.90
35445;DHT22;21562;49.476;6.086;2023-07-24T04:43:28;20.50;99.90
35445;DHT22;21562;49.476;6.086;2023-07-24T04:45:54;20.70;99.90
35445;DHT22;21562;49.476;6.086;2023-07-24T04:48:19;20.70;99.90
35445;DHT22;21562;49.476;6.086;2023-07-24T04:50:45;20.70;99.90
35445;DHT22;21562;49.476;6.086;2023-07-24T04:53:11;20.50;99.90
35445;DHT22;21562;49.476;6.086;2023-07-24T04:55:36;20.60;99.90
35445;DHT22;21562;49.476;6.086;2023-07-24T04:58:02;20.80;99.90
35445;DHT22;21562;49.476;6.086;2023-07-24T05:00:28;20.70;99.90
35445;DHT22;21562;49.476;6.086;2023-07-24T05:02:53;20.80;99.90
35445;DHT22;21562;49.476;6.086;2023-07-24T05:05:19;20.70;99.90
35445;DHT22;21562;49.476;6.086;2023-07-24T05:07:45;20.70;99.90
35445;DHT22;21562;49.476;6.086;2023-07-24T05:10:10;20.60;99.90
35445;DHT22;21562;49.476;6.086;2023-07-24T05:12:36;20.50;99.90
35445;DHT22;21562;49.476;6.086;2023-07-24T05:15:02;20.60;99.90
35445;DHT22;21562;49.476;6.086;2023-07-24T05:17:28;20.30;99.90
35445;DHT22;21562;49.476;6.086;2023-07-24T05:19:53;20.40;99.90
35445;DHT22;21562;49.476;6.086;2023-07-24T05:22:19;20.60;99.90
35445;DHT22;21562;49.476;6.086;2023-07-24T05:24:44;20.50;99.90
35445;DHT22;21562;49.476;6.086;2023-07-24T05:27:10;20.60;99.90
35445;DHT22;21562;49.476;6.086;2023-07-24T05:29:37;20.70;99.90
35445;DHT22;21562;49.476;6.086;2023-07-24T05:32:03;20.70;99.90
35445;DHT22;21562;49.476;6.086;2023-07-24T05:34:29;20.50;99.90
35445;DHT22;21562;49.476;6.086;2023-07-24T05:36:54;20.40;99.90
35445;DHT22;21562;49.476;6.086;2023-07-24T05:39:20;20.50;99.90
35445;DHT22;21562;49.476;6.086;2023-07-24T05:41:47;20.60;99.90
35445;DHT22;21562;49.476;6.086;2023-07-24T05:44:13;20.80;99.90
35445;DHT22;21562;49.476;6.086;2023-07-24T05:46:39;20.70;99.90
35445;DHT22;21562;49.476;6.086;2023-07-24T05:49:05;20.70;99.90
35445;DHT22;21562;49.476;6.086;2023-07-24T05:51:30;21.00;99.90
35445;DHT22;21562;49.476;6.086;2023-07-24T05:53:56;21.20;99.90
35445;DHT22;21562;49.476;6.086;2023-07-24T05:56:21;21.50;99.90
35445;DHT22;21562;49.476;6.086;2023-07-24T05:58:47;21.60;99.90
35445;DHT22;21562;49.476;6.086;2023-07-24T06:01:12;21.80;99.90
35445;DHT22;21562;49.476;6.086;2023-07-24T06:03:38;21.70;99.90
35445;DHT22;21562;49.476;6.086;2023-07-24T06:06:07;21.40;99.90
35445;DHT22;21562;49.476;6.086;2023-07-24T06:08:32;21.10;99.90
35445;DHT22;21562;49.476;6.086;2023-07-24T06:10:58;21.20;99.90
35445;DHT22;21562;49.476;6.086;2023-07-24T06:13:23;21.70;99.90
35445;DHT22;21562;49.476;6.086;2023-07-24T06:15:50;21.90;99.90
35445;DHT22;21562;49.476;6.086;2023-07-24T06:18:16;22.40;99.90
35445;DHT22;21562;49.476;6.086;2023-07-24T06:20:41;22.70;99.90
35445;DHT22;21562;49.476;6.086;2023-07-24T06:23:07;22.90;99.90
35445;DHT22;21562;49.476;6.086;2023-07-24T06:25:33;23.20;99.90
35445;DHT22;21562;49.476;6.086;2023-07-24T06:27:59;23.40;99.90
35445;DHT22;21562;49.476;6.086;2023-07-24T06:30:24;23.70;99.90
35445;DHT22;21562;49.476;6.086;2023-07-24T06:32:50;23.80;99.90
35445;DHT22;21562;49.476;6.086;2023-07-24T06:35:16;23.80;99.90
35445;DHT22;21562;49.476;6.086;2023-07-24T06:37:41;24.00;99.90
35445;DHT22;21562;49.476;6.086;2023-07-24T06:40:08;24.00;99.90
35445;DHT22;21562;49.476;6.086;2023-07-24T06:42:34;24.00;99.90
35445;DHT22;21562;49.476;6.086;2023-07-24T06:44:59;22.90;99.90
35445;DHT22;21562;49.476;6.086;2023-07-24T06:47:25;22.70;99.90
35445;DHT22;21562;49.476;6.086;2023-07-24T06:49:51;22.60;99.90
35445;DHT22;21562;49.476;6.086;2023-07-24T06:52:16;22.60;99.90
35445;DHT22;21562;49.476;6.086;2023-07-24T06:54:42;22.40;99.90
35445;DHT22;21562;49.476;6.086;2023-07-24T06:57:08;22.70;99.90
35445;DHT22;21562;49.476;6.086;2023-07-24T06:59:33;22.40;99.90
35445;DHT22;21562;49.476;6.086;2023-07-24T07:01:59;22.00;99.90
35445;DHT22;21562;49.476;6.086;2023-07-24T07:04:25;21.40;99.90
35445;DHT22;21562;49.476;6.086;2023-07-24T07:06:50;21.40;99.90
35445;DHT22;21562;49.476;6.086;2023-07-24T07:09:16;21.70;99.90
35445;DHT22;21562;49.476;6.086;2023-07-24T07:11:41;21.10;99.90
35445;DHT22;21562;49.476;6.086;2023-07-24T07:14:09;21.10;99.90
35445;DHT22;21562;49.476;6.086;2023-07-24T07:16:34;21.10;99.90
35445;DHT22;21562;49.476;6.086;2023-07-24T07:19:00;21.10;99.90
35445;DHT22;21562;49.476;6.086;2023-07-24T07:21:26;21.10;99.90
35445;DHT22;21562;49.476;6.086;2023-07-24T07:23:52;21.20;99.90
35445;DHT22;21562;49.476;6.086;2023-07-24T07:26:17;21.50;99.90
35445;DHT22;21562;49.476;6.086;2023-07-24T07:28:43;21.80;99.90
35445;DHT22;21562;49.476;6.086;2023-07-24T07:31:10;22.30;99.90
35445;DHT22;21562;49.476;6.086;2023-07-24T07:33:36;22.50;99.90
35445;DHT22;21562;49.476;6.086;2023-07-24T07:36:02;22.40;99.90
35445;DHT22;21562;49.476;6.086;2023-07-24T07:38:29;22.30;99.90
35445;DHT22;21562;49.476;6.086;2023-07-24T07:40:55;22.10;99.90
35445;DHT22;21562;49.476;6.086;2023-07-24T07:43:20;21.70;99.90
35445;DHT22;21562;49.476;6.086;2023-07-24T07:45:47;21.50;99.90
35445;DHT22;21562;49.476;6.086;2023-07-24T07:48:12;21.80;99.90
35445;DHT22;21562;49.476;6.086;2023-07-24T07:50:38;22.10;99.90
35445;DHT22;21562;49.476;6.086;2023-07-24T07:53:04;22.10;99.90
35445;DHT22;21562;49.476;6.086;2023-07-24T07:55:29;22.10;99.90
35445;DHT22;21562;49.476;6.086;2023-07-24T07:57:55;21.90;99.90
35445;DHT22;21562;49.476;6.086;2023-07-24T08:00:21;21.90;99.90
35445;DHT22;21562;49.476;6.086;2023-07-24T08:02:47;21.70;99.90
35445;DHT22;21562;49.476;6.086;2023-07-24T08:05:12;21.20;99.90
35445;DHT22;21562;49.476;6.086;2023-07-24T08:07:38;21.00;99.90
35445;DHT22;21562;49.476;6.086;2023-07-24T08:10:04;21.40;99.90
35445;DHT22;21562;49.476;6.086;2023-07-24T08:12:30;21.50;99.90
35445;DHT22;21562;49.476;6.086;2023-07-24T08:14:56;21.70;99.90
35445;DHT22;21562;49.476;6.086;2023-07-24T08:17:22;21.50;99.90
35445;DHT22;21562;49.476;6.086;2023-07-24T08:19:47;21.70;99.90
35445;DHT22;21562;49.476;6.086;2023-07-24T08:22:13;21.70;99.90
35445;DHT22;21562;49.476;6.086;2023-07-24T08:24:38;21.80;99.90
35445;DHT22;21562;49.476;6.086;2023-07-24T08:27:04;22.00;99.90
35445;DHT22;21562;49.476;6.086;2023-07-24T08:29:30;22.00;99.90
35445;DHT22;21562;49.476;6.086;2023-07-24T08:31:56;21.80;99.90
35445;DHT22;21562;49.476;6.086;2023-07-24T08:34:21;21.80;99.90
35445;DHT22;21562;49.476;6.086;2023-07-24T08:36:47;21.70;99.90
35445;DHT22;21562;49.476;6.086;2023-07-24T08:39:13;21.90;99.90
35445;DHT22;21562;49.476;6.086;2023-07-24T08:41:38;21.90;99.90
35445;DHT22;21562;49.476;6.086;2023-07-24T08:44:06;22.20;99.90
35445;DHT22;21562;49.476;6.086;2023-07-24T08:46:36;22.10;99.90
35445;DHT22;21562;49.476;6.086;2023-07-24T08:49:03;22.30;99.90
35445;DHT22;21562;49.476;6.086;2023-07-24T08:51:29;22.20;99.90
35445;DHT22;21562;49.476;6.086;2023-07-24T08:53:57;22.40;99.90
35445;DHT22;21562;49.476;6.086;2023-07-24T08:56:23;22.80;99.90
35445;DHT22;21562;49.476;6.086;2023-07-24T08:58:48;22.60;99.90
35445;DHT22;21562;49.476;6.086;2023-07-24T09:01:14;22.30;99.90
35445;DHT22;21562;49.476;6.086;2023-07-24T09:03:39;22.60;99.90
35445;DHT22;21562;49.476;6.086;2023-07-24T09:06:05;22.30;99.90
35445;DHT22;21562;49.476;6.086;2023-07-24T09:08:33;22.60;99.90
35445;DHT22;21562;49.476;6.086;2023-07-24T09:11:00;22.90;99.90
35445;DHT22;21562;49.476;6.086;2023-07-24T09:13:27;22.80;99.90
35445;DHT22;21562;49.476;6.086;2023-07-24T09:15:52;23.00;99.90
35445;DHT22;21562;49.476;6.086;2023-07-24T09:18:20;23.30;99.90
35445;DHT22;21562;49.476;6.086;2023-07-24T09:20:46;23.00;99.90
35445;DHT22;21562;49.476;6.086;2023-07-24T09:23:13;23.00;99.90
35445;DHT22;21562;49.476;6.086;2023-07-24T09:25:40;22.50;99.90
35445;DHT22;21562;49.476;6.086;2023-07-24T09:28:14;22.10;99.90
35445;DHT22;21562;49.476;6.086;2023-07-24T09:30:40;22.40;99.90
35445;DHT22;21562;49.476;6.086;2023-07-24T09:33:06;22.30;99.90
35445;DHT22;21562;49.476;6.086;2023-07-24T09:35:33;22.00;99.90
35445;DHT22;21562;49.476;6.086;2023-07-24T09:38:09;21.90;99.90
35445;DHT22;21562;49.476;6.086;2023-07-24T09:40:42;21.90;99.90
35445;DHT22;21562;49.476;6.086;2023-07-24T09:43:23;22.00;99.90
35445;DHT22;21562;49.476;6.086;2023-07-24T09:45:50;22.30;99.90
35445;DHT22;21562;49.476;6.086;2023-07-24T09:48:18;22.50;99.90
35445;DHT22;21562;49.476;6.086;2023-07-24T09:50:49;22.60;99.90
35445;DHT22;21562;49.476;6.086;2023-07-24T09:55:59;22.50;99.90
35445;DHT22;21562;49.476;6.086;2023-07-24T09:58:25;22.60;99.90
35445;DHT22;21562;49.476;6.086;2023-07-24T10:00:54;22.60;99.90
35445;DHT22;21562;49.476;6.086;2023-07-24T10:03:22;22.70;99.90
35445;DHT22;21562;49.476;6.086;2023-07-24T10:05:48;22.80;99.90
35445;DHT22;21562;49.476;6.086;2023-07-24T10:08:16;23.00;99.90
35445;DHT22;21562;49.476;6.086;2023-07-24T10:10:42;22.60;99.90
35445;DHT22;21562;49.476;6.086;2023-07-24T10:13:09;22.30;99.90
35445;DHT22;21562;49.476;6.086;2023-07-24T10:15:37;22.60;99.90
35445;DHT22;21562;49.476;6.086;2023-07-24T10:18:07;22.60;99.90
35445;DHT22;21562;49.476;6.086;2023-07-24T10:20:34;22.70;99.90
35445;DHT22;21562;49.476;6.086;2023-07-24T10:23:04;22.90;99.90
35445;DHT22;21562;49.476;6.086;2023-07-24T10:25:31;22.60;99.90
35445;DHT22;21562;49.476;6.086;2023-07-24T10:28:05;22.70;99.90
35445;DHT22;21562;49.476;6.086;2023-07-24T10:30:36;22.90;99.90
35445;DHT22;21562;49.476;6.086;2023-07-24T10:33:13;22.50;99.90
35445;DHT22;21562;49.476;6.086;2023-07-24T10:35:47;22.10;99.90
35445;DHT22;21562;49.476;6.086;2023-07-24T10:38:14;21.50;99.90
35445;DHT22;21562;49.476;6.086;2023-07-24T10:40:41;21.00;99.90
35445;DHT22;21562;49.476;6.086;2023-07-24T10:43:10;20.80;99.90
35445;DHT22;21562;49.476;6.086;2023-07-24T10:48:05;20.70;99.90
35445;DHT22;21562;49.476;6.086;2023-07-24T10:50:41;20.30;99.90
35445;DHT22;21562;49.476;6.086;2023-07-24T10:53:09;20.50;99.90
35445;DHT22;21562;49.476;6.086;2023-07-24T10:55:35;20.50;99.90
35445;DHT22;21562;49.476;6.086;2023-07-24T10:58:01;20.40;99.90
35445;DHT22;21562;49.476;6.086;2023-07-24T11:00:27;20.30;99.90
35445;DHT22;21562;49.476;6.086;2023-07-24T11:02:54;20.60;99.90
35445;DHT22;21562;49.476;6.086;2023-07-24T11:05:21;20.60;99.90
35445;DHT22;21562;49.476;6.086;2023-07-24T11:07:47;20.60;99.90
35445;DHT22;21562;49.476;6.086;2023-07-24T11:10:17;20.60;99.90
35445;DHT22;21562;49.476;6.086;2023-07-24T11:12:43;20.80;99.90
35445;DHT22;21562;49.476;6.086;2023-07-24T11:15:10;20.90;99.90
35445;DHT22;21562;49.476;6.086;2023-07-24T11:17:37;21.20;99.90
35445;DHT22;21562;49.476;6.086;2023-07-24T11:22:37;20.40;99.90
35445;DHT22;21562;49.476;6.086;2023-07-24T11:25:03;20.50;99.90
35445;DHT22;21562;49.476;6.086;2023-07-24T11:27:30;20.50;99.90
35445;DHT22;21562;49.476;6.086;2023-07-24T11:29:56;20.50;99.90
35445;DHT22;21562;49.476;6.086;2023-07-24T11:32:22;20.40;99.90
35445;DHT22;21562;49.476;6.086;2023-07-24T11:34:51;20.00;99.90
35445;DHT22;21562;49.476;6.086;2023-07-24T11:37:18;19.90;99.90
35445;DHT22;21562;49.476;6.086;2023-07-24T11:39:55;19.50;99.90
35445;DHT22;21562;49.476;6.086;2023-07-24T11:42:21;19.30;99.90
35445;DHT22;21562;49.476;6.086;2023-07-24T11:44:49;19.50;99.90
35445;DHT22;21562;49.476;6.086;2023-07-24T11:47:15;19.70;99.90
35445;DHT22;21562;49.476;6.086;2023-07-24T11:49:40;19.70;99.90
35445;DHT22;21562;49.476;6.086;2023-07-24T11:52:12;19.50;99.90
35445;DHT22;21562;49.476;6.086;2023-07-24T11:54:38;19.30;99.90
35445;DHT22;21562;49.476;6.086;2023-07-24T11:57:16;19.30;99.90
35445;DHT22;21562;49.476;6.086;2023-07-24T11:59:42;19.40;99.90
35445;DHT22;21562;49.476;6.086;2023-07-24T12:02:11;19.80;99.90
35445;DHT22;21562;49.476;6.086;2023-07-24T12:04:37;20.10;99.90
35445;DHT22;21562;49.476;6.086;2023-07-24T12:07:08;20.50;99.90
35445;DHT22;21562;49.476;6.086;2023-07-24T12:09:34;20.50;99.90
35445;DHT22;21562;49.476;6.086;2023-07-24T12:11:59;20.70;99.90
35445;DHT22;21562;49.476;6.086;2023-07-24T12:14:25;20.30;99.90
35445;DHT22;21562;49.476;6.086;2023-07-24T12:17:03;20.40;99.90
35445;DHT22;21562;49.476;6.086;2023-07-24T12:19:28;20.40;99.90
35445;DHT22;21562;49.476;6.086;2023-07-24T12:21:54;20.40;99.90
35445;DHT22;21562;49.476;6.086;2023-07-24T12:24:20;20.40;99.90
35445;DHT22;21562;49.476;6.086;2023-07-24T12:26:45;20.80;99.90
35445;DHT22;21562;49.476;6.086;2023-07-24T12:29:11;21.20;99.90
35445;DHT22;21562;49.476;6.086;2023-07-24T12:31:36;21.40;99.90
35445;DHT22;21562;49.476;6.086;2023-07-24T12:34:02;21.40;99.90
35445;DHT22;21562;49.476;6.086;2023-07-24T12:36:28;21.40;99.90
35445;DHT22;21562;49.476;6.086;2023-07-24T12:38:53;21.40;99.90
35445;DHT22;21562;49.476;6.086;2023-07-24T12:41:19;21.60;99.90
35445;DHT22;21562;49.476;6.086;2023-07-24T12:43:45;22.00;99.90
35445;DHT22;21562;49.476;6.086;2023-07-24T12:46:10;21.60;99.90
35445;DHT22;21562;49.476;6.086;2023-07-24T12:48:36;21.80;99.90
35445;DHT22;21562;49.476;6.086;2023-07-24T12:51:02;22.30;99.90
35445;DHT22;21562;49.476;6.086;2023-07-24T12:53:28;22.20;99.90
35445;DHT22;21562;49.476;6.086;2023-07-24T12:55:54;21.60;99.90
35445;DHT22;21562;49.476;6.086;2023-07-24T12:58:19;21.20;99.90
35445;DHT22;21562;49.476;6.086;2023-07-24T13:00:45;20.90;99.90
35445;DHT22;21562;49.476;6.086;2023-07-24T13:03:11;20.70;99.90
35445;DHT22;21562;49.476;6.086;2023-07-24T13:05:37;20.70;99.90
35445;DHT22;21562;49.476;6.086;2023-07-24T13:08:03;20.60;99.90
35445;DHT22;21562;49.476;6.086;2023-07-24T13:10:29;20.70;99.90
35445;DHT22;21562;49.476;6.086;2023-07-24T13:12:55;20.90;99.90
35445;DHT22;21562;49.476;6.086;2023-07-24T13:15:21;21.00;99.90
35445;DHT22;21562;49.476;6.086;2023-07-24T13:17:48;21.00;99.90
35445;DHT22;21562;49.476;6.086;2023-07-24T13:20:13;21.40;99.90
35445;DHT22;21562;49.476;6.086;2023-07-24T13:22:39;21.70;99.90
35445;DHT22;21562;49.476;6.086;2023-07-24T13:25:05;21.60;99.90
35445;DHT22;21562;49.476;6.086;2023-07-24T13:27:31;21.60;99.90
35445;DHT22;21562;49.476;6.086;2023-07-24T13:29:57;21.90;99.90
35445;DHT22;21562;49.476;6.086;2023-07-24T13:32:23;22.20;99.90
35445;DHT22;21562;49.476;6.086;2023-07-24T13:34:48;22.40;99.90
35445;DHT22;21562;49.476;6.086;2023-07-24T13:37:14;22.40;99.90
35445;DHT22;21562;49.476;6.086;2023-07-24T13:39:39;22.40;99.90
35445;DHT22;21562;49.476;6.086;2023-07-24T13:42:05;22.30;99.90
35445;DHT22;21562;49.476;6.086;2023-07-24T13:44:31;22.20;99.90
35445;DHT22;21562;49.476;6.086;2023-07-24T13:46:56;22.50;99.90
35445;DHT22;21562;49.476;6.086;2023-07-24T13:49:22;22.80;99.90
35445;DHT22;21562;49.476;6.086;2023-07-24T13:51:48;23.20;99.90
35445;DHT22;21562;49.476;6.086;2023-07-24T13:54:13;22.80;99.90
35445;DHT22;21562;49.476;6.086;2023-07-24T13:56:39;22.70;99.90
35445;DHT22;21562;49.476;6.086;2023-07-24T13:59:04;22.70;99.90
35445;DHT22;21562;49.476;6.086;2023-07-24T14:01:30;22.50;99.90
35445;DHT22;21562;49.476;6.086;2023-07-24T14:03:55;22.50;99.90
35445;DHT22;21562;49.476;6.086;2023-07-24T14:06:21;22.50;99.90
35445;DHT22;21562;49.476;6.086;2023-07-24T14:08:47;22.60;99.90
35445;DHT22;21562;49.476;6.086;2023-07-24T14:11:12;22.50;99.90
35445;DHT22;21562;49.476;6.086;2023-07-24T14:13:38;22.20;99.90
35445;DHT22;21562;49.476;6.086;2023-07-24T14:16:03;22.20;99.90
35445;DHT22;21562;49.476;6.086;2023-07-24T14:18:29;22.20;99.90
35445;DHT22;21562;49.476;6.086;2023-07-24T14:20:55;22.30;99.90
35445;DHT22;21562;49.476;6.086;2023-07-24T14:23:22;22.30;99.90
35445;DHT22;21562;49.476;6.086;2023-07-24T14:25:47;22.50;99.90
35445;DHT22;21562;49.476;6.086;2023-07-24T14:28:13;22.40;99.90
35445;DHT22;21562;49.476;6.086;2023-07-24T14:30:39;22.10;99.90
35445;DHT22;21562;49.476;6.086;2023-07-24T14:33:04;22.00;99.90
35445;DHT22;21562;49.476;6.086;2023-07-24T14:35:30;22.20;99.90
35445;DHT22;21562;49.476;6.086;2023-07-24T14:37:56;22.20;99.90
35445;DHT22;21562;49.476;6.086;2023-07-24T14:40:21;22.00;99.90
35445;DHT22;21562;49.476;6.086;2023-07-24T14:42:47;22.00;99.90
35445;DHT22;21562;49.476;6.086;2023-07-24T14:45:12;22.10;99.90
35445;DHT22;21562;49.476;6.086;2023-07-24T14:47:38;22.00;99.90
35445;DHT22;21562;49.476;6.086;2023-07-24T14:50:04;22.00;99.90
35445;DHT22;21562;49.476;6.086;2023-07-24T14:52:30;21.90;99.90
35445;DHT22;21562;49.476;6.086;2023-07-24T14:54:55;22.10;99.90
35445;DHT22;21562;49.476;6.086;2023-07-24T14:57:21;22.30;99.90
35445;DHT22;21562;49.476;6.086;2023-07-24T14:59:47;22.60;99.90
35445;DHT22;21562;49.476;6.086;2023-07-24T15:02:12;22.50;99.90
35445;DHT22;21562;49.476;6.086;2023-07-24T15:04:38;22.30;99.90
35445;DHT22;21562;49.476;6.086;2023-07-24T15:07:04;22.20;99.90
35445;DHT22;21562;49.476;6.086;2023-07-24T15:09:29;22.30;99.90
35445;DHT22;21562;49.476;6.086;2023-07-24T15:11:56;22.60;99.90
35445;DHT22;21562;49.476;6.086;2023-07-24T15:14:22;22.40;99.90
35445;DHT22;21562;49.476;6.086;2023-07-24T15:16:50;22.50;99.90
35445;DHT22;21562;49.476;6.086;2023-07-24T15:19:16;22.60;99.90
35445;DHT22;21562;49.476;6.086;2023-07-24T15:21:41;22.50;99.90
35445;DHT22;21562;49.476;6.086;2023-07-24T15:24:07;22.40;99.90
35445;DHT22;21562;49.476;6.086;2023-07-24T15:26:32;22.40;99.90
35445;DHT22;21562;49.476;6.086;2023-07-24T15:28:58;22.30;99.90
35445;DHT22;21562;49.476;6.086;2023-07-24T15:31:24;22.40;99.90